Time;durP1;ratioP1;P1;durP2;ratioP2;P2;SDS_P1;SDS_P2;PMS_P1;PMS_P2;Temp;Humidity;BMP_temperature;BMP_pressure;BME280_temperature;BME280_humidity;BME280_pressure;Samples;Min_cycle;Max_cycle;Signal;HPM_P1;HPM_P2
2021/06/20 00:00:20;;;;;;;7.33;1.77;;;;;;;21.56;59.30;100806.06;1745187;82;20931;-38
2021/06/20 00:02:47;;;;;;;5.12;1.22;;;;;;;21.52;59.05;100798.80;1746014;80;20983;-38
2021/06/20 00:05:32;;;;;;;6.17;1.12;;;;;;;21.51;58.72;100803.69;1746052;82;20993;-38
2021/06/20 00:08:02;;;;;;;3.77;1.02;;;;;;;21.50;58.52;100803.80;1746063;80;20920;-38
2021/06/20 00:10:32;;;;;;;12.30;2.17;;;;;;;21.46;58.59;100799.17;1746270;80;20984;-38
2021/06/20 00:13:01;;;;;;;11.43;1.50;;;;;;;21.41;58.67;100794.66;1746018;82;21007;-36
2021/06/20 00:15:29;;;;;;;7.28;1.50;;;;;;;21.37;58.54;100796.61;1746010;82;20933;-37
2021/06/20 00:17:55;;;;;;;9.40;1.20;;;;;;;21.34;58.45;100798.56;1745980;82;21012;-37
2021/06/20 00:20:25;;;;;;;12.00;1.40;;;;;;;21.29;58.50;100791.41;1746343;82;21509;-36
2021/06/20 00:22:52;;;;;;;9.80;1.60;;;;;;;21.26;58.45;100797.72;1745986;82;21199;-38
2021/06/20 00:25:19;;;;;;;6.20;1.60;;;;;;;21.25;58.00;100781.55;1746034;82;21482;-38
2021/06/20 00:27:46;;;;;;;11.43;1.67;;;;;;;21.26;57.90;100783.23;1745937;82;20959;-38
2021/06/20 00:30:19;;;;;;;25.27;1.10;;;;;;;21.28;57.50;100785.31;1745956;80;20991;-37
2021/06/20 00:32:47;;;;;;;6.85;0.98;;;;;;;21.30;57.30;100782.12;1745996;80;21187;-38
2021/06/20 00:35:14;;;;;;;6.83;1.15;;;;;;;21.33;57.28;100787.65;1745956;82;21136;-38
2021/06/20 00:37:41;;;;;;;6.62;1.00;;;;;;;21.31;57.29;100787.76;1745865;82;20956;-36
2021/06/20 00:40:08;;;;;;;4.37;1.20;;;;;;;21.29;56.93;100787.00;1746075;82;20975;-37
2021/06/20 00:42:35;;;;;;;13.72;1.37;;;;;;;21.30;56.83;100794.41;1746142;82;21493;-36
2021/06/20 00:45:01;;;;;;;5.78;0.90;;;;;;;21.28;56.89;100789.26;1746195;82;21434;-38
2021/06/20 00:47:28;;;;;;;12.00;1.57;;;;;;;21.24;56.96;100780.69;1746076;80;21894;-37
2021/06/20 00:49:54;;;;;;;6.33;1.02;;;;;;;21.25;56.06;100795.53;1746047;82;20999;-37
2021/06/20 00:52:21;;;;;;;4.33;1.17;;;;;;;21.28;55.74;100773.47;1746414;82;20968;-38
2021/06/20 00:54:48;;;;;;;4.72;0.93;;;;;;;21.32;55.69;100782.87;1746175;82;20925;-38
2021/06/20 00:57:19;;;;;;;4.85;0.95;;;;;;;21.34;55.51;100780.99;1746222;82;20936;-37
2021/06/20 00:59:46;;;;;;;5.55;1.22;;;;;;;21.35;54.82;100778.73;1746471;82;21785;-38
2021/06/20 01:02:13;;;;;;;5.35;1.07;;;;;;;21.37;54.49;100783.93;1746058;82;21549;-37
2021/06/20 01:04:43;;;;;;;3.67;1.10;;;;;;;21.39;54.36;100780.73;1746246;82;20928;-37
2021/06/20 01:07:18;;;;;;;11.12;1.05;;;;;;;21.43;54.20;100774.34;1746077;82;20995;-38
2021/06/20 01:09:45;;;;;;;9.08;1.02;;;;;;;21.46;53.52;100771.52;1746771;82;21015;-38
2021/06/20 01:12:12;;;;;;;3.92;0.93;;;;;;;21.49;53.63;100777.92;1746180;82;21086;-37
2021/06/20 01:14:39;;;;;;;8.68;1.17;;;;;;;21.50;53.54;100773.03;1746027;82;20955;-37
2021/06/20 01:17:06;;;;;;;4.87;1.12;;;;;;;21.51;53.16;100779.98;1746171;82;21529;-37
2021/06/20 01:19:35;;;;;;;8.90;1.40;;;;;;;21.53;53.28;100782.06;1746143;82;20972;-39
2021/06/20 01:22:21;;;;;;;12.47;1.10;;;;;;;21.55;52.73;100780.67;1746224;82;21003;-37
2021/06/20 01:24:57;;;;;;;8.28;1.40;;;;;;;21.56;52.93;100785.45;1746690;82;21076;-38
2021/06/20 01:27:37;;;;;;;6.55;0.82;;;;;;;21.55;52.95;100776.72;1745976;82;20936;-39
2021/06/20 01:30:09;;;;;;;7.35;1.25;;;;;;;21.54;52.76;100784.23;1745902;82;20977;-38
2021/06/20 01:32:35;;;;;;;3.12;1.00;;;;;;;21.54;52.70;100782.44;1746044;81;20944;-38
2021/06/20 01:35:01;;;;;;;9.53;1.07;;;;;;;21.54;52.82;100777.66;1746220;82;20905;-37
2021/06/20 01:37:29;;;;;;;5.72;1.00;;;;;;;21.52;52.73;100775.09;1746128;82;21045;-37
2021/06/20 01:39:56;;;;;;;11.53;1.25;;;;;;;21.50;52.67;100769.08;1746035;82;20960;-37
2021/06/20 01:42:23;;;;;;;4.05;0.95;;;;;;;21.49;52.67;100771.34;1746131;82;21485;-37
2021/06/20 01:44:57;;;;;;;11.60;1.50;;;;;;;21.48;52.41;100770.95;1746038;82;20928;-36
2021/06/20 01:47:25;;;;;;;9.35;1.30;;;;;;;21.47;52.27;100774.98;1746151;82;21513;-37
2021/06/20 01:49:52;;;;;;;7.97;1.05;;;;;;;21.45;52.35;100781.68;1746098;82;21132;-38
2021/06/20 01:52:22;;;;;;;7.22;1.00;;;;;;;21.40;52.79;100781.11;1746154;82;21666;-39
2021/06/20 01:54:51;;;;;;;6.37;1.20;;;;;;;21.31;53.16;100771.10;1746041;82;20941;-37
2021/06/20 01:57:23;;;;;;;13.45;1.35;;;;;;;21.22;53.90;100778.61;1746022;82;20928;-38
2021/06/20 01:59:54;;;;;;;2.15;0.90;;;;;;;21.10;54.32;100776.22;1746166;80;21489;-36
2021/06/20 02:02:22;;;;;;;9.48;1.30;;;;;;;20.99;54.64;100777.78;1746189;82;21133;-37
2021/06/20 02:04:54;;;;;;;15.23;1.32;;;;;;;20.91;54.93;100786.09;1746144;82;20976;-38
2021/06/20 02:07:24;;;;;;;11.38;1.25;;;;;;;20.85;55.03;100775.94;1746313;82;20984;-38
2021/06/20 02:09:51;;;;;;;6.47;1.25;;;;;;;20.81;54.86;100771.30;1746089;81;20921;-38
2021/06/20 02:12:20;;;;;;;7.00;1.65;;;;;;;20.79;54.93;100773.14;1746004;82;20973;-36
2021/06/20 02:14:46;;;;;;;6.62;1.00;;;;;;;20.77;54.88;100778.50;1749671;81;21393;-38
2021/06/20 02:17:29;;;;;;;3.77;0.98;;;;;;;20.75;54.65;100773.80;1746001;82;20999;-38
2021/06/20 02:19:59;;;;;;;7.12;1.25;;;;;;;20.75;54.69;100772.94;1746141;82;20912;-38
2021/06/20 02:22:25;;;;;;;5.20;1.20;;;;;;;20.75;54.43;100769.00;1746241;82;20901;-37
2021/06/20 02:24:52;;;;;;;9.80;1.12;;;;;;;20.76;54.31;100770.69;1746041;82;21019;-37
2021/06/20 02:27:18;;;;;;;8.68;1.35;;;;;;;20.78;53.89;100764.42;1746136;82;21131;-37
2021/06/20 02:29:48;;;;;;;3.37;0.80;;;;;;;20.78;53.81;100764.42;1746008;82;20992;-37
2021/06/20 02:32:14;;;;;;;1.75;0.68;;;;;;;20.77;54.03;100760.09;1751870;81;20988;-38
2021/06/20 02:34:41;;;;;;;3.50;1.10;;;;;;;20.74;53.98;100758.95;1764578;81;20968;-39
2021/06/20 02:37:09;;;;;;;5.80;1.15;;;;;;;20.72;54.23;100750.77;1764552;81;20933;-36
2021/06/20 02:39:36;;;;;;;9.40;1.22;;;;;;;20.67;54.00;100748.38;1764655;81;21051;-38
2021/06/20 02:42:04;;;;;;;7.55;1.15;;;;;;;20.65;53.99;100746.31;1764431;81;20948;-37
2021/06/20 02:44:32;;;;;;;3.47;1.42;;;;;;;20.63;53.77;100737.21;1764993;81;21593;-38
2021/06/20 02:46:59;;;;;;;5.53;1.20;;;;;;;20.60;53.93;100736.07;1764708;81;21490;-38
2021/06/20 02:49:26;;;;;;;7.35;1.02;;;;;;;20.59;53.94;100738.77;1764583;81;21004;-38
2021/06/20 02:51:53;;;;;;;13.28;1.20;;;;;;;20.55;54.11;100735.45;1764603;81;21131;-38
2021/06/20 02:54:19;;;;;;;3.22;1.15;;;;;;;20.55;53.21;100730.20;1764885;81;21055;-37
2021/06/20 02:56:46;;;;;;;6.95;0.90;;;;;;;20.59;53.43;100729.57;1764638;81;21670;-36
2021/06/20 02:59:14;;;;;;;7.95;1.20;;;;;;;20.58;53.69;100731.34;1764543;81;20976;-36
2021/06/20 03:01:40;;;;;;;5.92;1.00;;;;;;;20.56;53.50;100729.75;1764603;81;20933;-36
2021/06/20 03:04:07;;;;;;;6.87;1.15;;;;;;;20.53;53.69;100728.98;1764681;81;21227;-36
2021/06/20 03:06:33;;;;;;;2.50;0.90;;;;;;;20.49;53.85;100732.73;1764517;81;20885;-36
2021/06/20 03:09:00;;;;;;;7.60;1.20;;;;;;;20.49;53.25;100735.81;1764567;81;21459;-37
2021/06/20 03:11:26;;;;;;;9.23;1.00;;;;;;;20.48;53.78;100738.06;1764555;81;20972;-38
2021/06/20 03:13:53;;;;;;;11.28;0.98;;;;;;;20.45;53.79;100736.44;1764551;81;21031;-39
2021/06/20 03:16:20;;;;;;;8.70;1.20;;;;;;;20.44;53.88;100739.17;1764588;81;21177;-37
2021/06/20 03:18:48;;;;;;;11.12;0.90;;;;;;;20.41;53.68;100736.23;1764420;81;20981;-36
2021/06/20 03:21:15;;;;;;;4.87;1.10;;;;;;;20.44;53.20;100745.25;1764585;81;21462;-39
2021/06/20 03:23:43;;;;;;;11.70;1.05;;;;;;;20.46;53.37;100743.88;1764492;81;20992;-37
2021/06/20 03:26:10;;;;;;;4.97;0.62;;;;;;;20.50;53.31;100742.77;1764643;81;21538;-38
2021/06/20 03:28:36;;;;;;;2.35;1.02;;;;;;;20.55;53.57;100742.52;1764702;81;21904;-37
2021/06/20 03:31:04;;;;;;;8.43;0.80;;;;;;;20.57;53.63;100741.47;1764510;81;20972;-36
2021/06/20 03:33:31;;;;;;;9.60;0.90;;;;;;;20.57;53.51;100748.05;1751107;81;21024;-37
2021/06/20 03:35:59;;;;;;;3.92;1.12;;;;;;;20.59;53.24;100746.21;1746054;82;20961;-37
2021/06/20 03:38:26;;;;;;;16.48;1.10;;;;;;;20.58;53.81;100747.11;1746161;82;21526;-38
2021/06/20 03:40:52;;;;;;;17.23;1.57;;;;;;;20.55;53.88;100746.45;1746009;82;21833;-38
2021/06/20 03:43:19;;;;;;;5.28;1.10;;;;;;;20.52;54.21;100755.35;1745844;81;21039;-37
2021/06/20 03:45:45;;;;;;;3.98;1.00;;;;;;;20.47;54.27;100749.51;1745936;82;21019;-36
2021/06/20 03:48:12;;;;;;;6.30;0.93;;;;;;;20.49;54.28;100746.33;1746037;82;20968;-39
2021/06/20 03:50:38;;;;;;;6.42;1.00;;;;;;;20.59;54.36;100743.58;1746022;82;20905;-38
2021/06/20 03:53:06;;;;;;;3.87;0.90;;;;;;;20.72;53.99;100744.19;1746125;82;21947;-35
2021/06/20 03:55:32;;;;;;;5.72;0.82;;;;;;;20.81;53.30;100741.05;1701118;82;21048;-37
2021/06/20 03:58:01;;;;;;;8.90;1.10;;;;;;;20.84;53.46;100738.27;1746053;81;20909;-37
2021/06/20 04:00:27;;;;;;;2.90;1.05;;;;;;;20.88;52.96;100735.84;1746104;82;21018;-38
2021/06/20 04:02:54;;;;;;;3.45;1.10;;;;;;;21.03;53.09;100726.21;1746074;80;21018;-39
2021/06/20 04:05:20;;;;;;;4.58;1.10;;;;;;;21.22;52.36;100729.09;1746315;82;21125;-37
2021/06/20 04:07:48;;;;;;;8.68;1.07;;;;;;;21.43;51.85;100725.64;1745946;82;20928;-38
2021/06/20 04:10:15;;;;;;;6.78;0.90;;;;;;;21.67;51.03;100727.76;1745998;82;20977;-38
2021/06/20 04:12:41;;;;;;;8.65;1.57;;;;;;;21.88;50.74;100731.33;1746076;82;21652;-36
2021/06/20 04:15:09;;;;;;;9.93;0.90;;;;;;;22.09;50.09;100732.60;1745998;82;21234;-38
2021/06/20 04:17:36;;;;;;;13.28;1.10;;;;;;;22.25;49.69;100725.92;1746002;82;21240;-37
2021/06/20 04:20:06;;;;;;;8.30;0.85;;;;;;;22.35;48.83;100714.77;1746070;80;21019;-39
2021/06/20 04:22:32;;;;;;;8.48;1.25;;;;;;;22.38;48.46;100714.58;1745914;80;20981;-39
2021/06/20 04:25:00;;;;;;;11.03;1.40;;;;;;;22.40;48.76;100720.59;1746026;82;21475;-36
2021/06/20 04:27:26;;;;;;;13.28;1.30;;;;;;;22.45;49.21;100722.45;1745988;82;20901;-37
2021/06/20 04:29:53;;;;;;;6.62;1.10;;;;;;;22.45;49.17;100727.73;1745968;82;21127;-36
2021/06/20 04:32:19;;;;;;;3.15;0.72;;;;;;;22.37;49.63;100731.34;1746143;80;20901;-39
2021/06/20 04:34:46;;;;;;;11.28;0.80;;;;;;;22.27;49.42;100736.34;1748717;82;20967;-38
2021/06/20 04:37:12;;;;;;;1.98;0.80;;;;;;;22.16;49.22;100736.20;1748619;82;21002;-38
2021/06/20 04:39:39;;;;;;;4.30;1.00;;;;;;;22.06;49.45;100743.34;1748906;82;21504;-37
2021/06/20 04:42:09;;;;;;;2.83;0.98;;;;;;;22.05;49.98;100749.55;1748720;81;21481;-35
2021/06/20 04:44:44;;;;;;;3.00;0.80;;;;;;;22.13;50.23;100748.25;1748777;82;20940;-38
2021/06/20 04:48:39;;;;;;;7.67;0.88;;;;;;;22.39;50.28;100743.95;1797676;79;22783;-38
2021/06/20 04:51:06;;;;;;;3.42;1.00;;;;;;;22.55;50.47;100746.48;1757465;80;20915;-37
2021/06/20 04:53:33;;;;;;;7.20;0.72;;;;;;;22.74;50.08;100748.79;1757475;81;21965;-37
2021/06/20 04:55:59;;;;;;;5.37;1.15;;;;;;;22.90;50.00;100751.72;1757412;81;20944;-37
2021/06/20 04:58:25;;;;;;;4.20;0.70;;;;;;;23.01;48.57;100747.91;1757378;81;20979;-38
2021/06/20 05:00:52;;;;;;;5.03;1.00;;;;;;;23.08;47.96;100753.61;1757340;81;20960;-38
2021/06/20 05:03:18;;;;;;;5.22;0.95;;;;;;;23.11;47.70;100746.80;1757433;81;20995;-37
2021/06/20 05:05:45;;;;;;;13.25;1.10;;;;;;;23.05;47.50;100757.77;1757447;81;21114;-37
2021/06/20 05:08:11;;;;;;;9.58;1.22;;;;;;;22.94;47.76;100765.08;1757388;81;21313;-38
2021/06/20 05:10:37;;;;;;;7.15;1.35;;;;;;;22.83;48.03;100773.70;1757319;81;20952;-37
2021/06/20 05:13:04;;;;;;;3.85;1.15;;;;;;;22.65;48.42;100767.38;1757416;81;20971;-37
2021/06/20 05:15:30;;;;;;;9.15;1.90;;;;;;;22.59;48.92;100772.19;1757577;81;21526;-36
2021/06/20 05:17:56;;;;;;;1.92;0.95;;;;;;;22.70;49.28;100775.45;1757653;81;21772;-37
2021/06/20 05:20:24;;;;;;;7.28;0.80;;;;;;;22.98;48.29;100781.08;1757310;81;20936;-36
2021/06/20 05:22:51;;;;;;;6.15;1.00;;;;;;;23.37;48.02;100778.58;1757618;81;20904;-37
2021/06/20 05:25:17;;;;;;;15.00;1.15;;;;;;;23.83;46.95;100774.08;1757291;81;20971;-38
2021/06/20 05:27:43;;;;;;;5.20;0.68;;;;;;;24.21;47.07;100771.53;1757421;81;20921;-37
2021/06/20 05:30:12;;;;;;;5.72;1.15;;;;;;;24.50;44.94;100764.16;1757628;81;21899;-37
2021/06/20 05:32:39;;;;;;;9.65;1.07;;;;;;;24.66;45.26;100767.84;1757657;81;20888;-37
2021/06/20 05:35:06;;;;;;;9.65;1.05;;;;;;;24.87;43.65;100760.61;1757377;81;20995;-38
2021/06/20 05:37:33;;;;;;;15.15;1.27;;;;;;;24.92;44.43;100758.48;1757337;81;21003;-36
2021/06/20 05:39:59;;;;;;;18.17;1.80;;;;;;;25.15;43.14;100759.03;1757363;81;20936;-37
2021/06/20 05:42:26;;;;;;;6.90;1.17;;;;;;;25.21;43.84;100763.85;1755717;81;21195;-36
2021/06/20 05:44:53;;;;;;;11.12;1.00;;;;;;;25.36;42.36;100753.89;1749203;82;21528;-37
2021/06/20 05:47:20;;;;;;;10.65;1.40;;;;;;;25.49;44.10;100767.06;1749144;81;20893;-38
2021/06/20 05:49:47;;;;;;;11.22;1.30;;;;;;;25.80;43.75;100763.39;1749778;82;21030;-36
2021/06/20 05:52:13;;;;;;;4.62;1.25;;;;;;;26.10;42.74;100752.64;1750195;82;20967;-38
2021/06/20 05:54:40;;;;;;;12.73;1.72;;;;;;;26.28;41.34;100742.38;1749830;82;21305;-40
2021/06/20 05:57:06;;;;;;;18.23;1.40;;;;;;;26.43;40.44;100749.58;1750122;82;20908;-37
2021/06/20 05:59:33;;;;;;;6.67;1.27;;;;;;;26.31;40.51;100747.44;1749412;82;21036;-38
2021/06/20 06:02:00;;;;;;;14.25;1.47;;;;;;;26.18;41.47;100740.12;1749328;82;21549;-37
2021/06/20 06:04:26;;;;;;;8.85;1.17;;;;;;;26.16;41.75;100744.68;1749369;82;21507;-38
2021/06/20 06:06:53;;;;;;;12.90;1.30;;;;;;;26.21;42.02;100743.36;1749332;82;21844;-36
2021/06/20 06:09:20;;;;;;;12.70;1.12;;;;;;;26.35;42.16;100744.06;1749209;82;21633;-38
2021/06/20 06:11:46;;;;;;;12.63;1.47;;;;;;;26.43;41.44;100736.31;1749602;82;21019;-37
2021/06/20 06:14:12;;;;;;;22.58;1.62;;;;;;;26.48;43.30;100741.25;1749208;82;20980;-37
2021/06/20 06:16:39;;;;;;;5.28;1.20;;;;;;;26.62;42.70;100739.63;1749294;82;20972;-37
2021/06/20 06:19:05;;;;;;;14.43;1.65;;;;;;;26.84;41.50;100745.81;1749243;82;21143;-38
2021/06/20 06:21:32;;;;;;;7.72;1.67;;;;;;;26.90;40.40;100741.34;1749377;82;21446;-39
2021/06/20 06:23:59;;;;;;;12.35;1.80;;;;;;;26.74;41.34;100733.78;1749386;82;21462;-38
2021/06/20 06:26:26;;;;;;;14.98;1.98;;;;;;;26.65;41.07;100729.25;1749355;82;20960;-38
2021/06/20 06:28:52;;;;;;;23.95;3.35;;;;;;;26.55;41.56;100725.18;1749504;82;20936;-37
2021/06/20 06:31:19;;;;;;;22.67;2.58;;;;;;;26.50;42.06;100725.55;1749331;82;21094;-38
2021/06/20 06:33:45;;;;;;;25.45;3.52;;;;;;;26.61;41.48;100725.17;1749275;82;20935;-38
2021/06/20 06:36:11;;;;;;;21.70;2.37;;;;;;;26.61;40.53;100720.69;1749312;82;20952;-38
2021/06/20 06:38:39;;;;;;;13.08;2.37;;;;;;;26.45;39.96;100714.48;1749403;82;20977;-38
2021/06/20 06:41:06;;;;;;;15.28;1.70;;;;;;;26.29;40.74;100718.05;1749328;82;20932;-37
2021/06/20 06:43:33;;;;;;;24.80;3.05;;;;;;;26.14;41.50;100712.11;1749308;82;21140;-36
2021/06/20 06:46:00;;;;;;;12.13;1.87;;;;;;;26.27;41.63;100707.55;1749254;82;21529;-38
2021/06/20 06:48:27;;;;;;;18.27;1.82;;;;;;;26.34;41.80;100699.44;1739967;81;20969;-38
2021/06/20 06:50:54;;;;;;;23.30;3.17;;;;;;;26.39;41.98;100696.41;1735251;82;20978;-38
2021/06/20 06:53:20;;;;;;;36.40;3.77;;;;;;;26.43;42.53;100699.67;1735523;82;21015;-39
2021/06/20 06:55:46;;;;;;;11.18;2.42;;;;;;;26.48;41.84;100695.64;1735219;82;21219;-39
2021/06/20 06:58:14;;;;;;;28.55;2.17;;;;;;;26.49;41.69;100695.18;1735162;82;20937;-38
2021/06/20 07:00:40;;;;;;;20.75;1.98;;;;;;;26.49;42.71;100703.14;1735150;82;21012;-39
2021/06/20 07:03:07;;;;;;;21.05;1.67;;;;;;;26.68;41.18;100701.13;1735204;82;20945;-36
2021/06/20 07:05:34;;;;;;;17.02;1.82;;;;;;;26.68;41.97;100702.45;1735278;82;20985;-38
2021/06/20 07:08:00;;;;;;;15.68;2.55;;;;;;;26.72;42.29;100708.36;1735322;82;21912;-38
2021/06/20 07:10:26;;;;;;;25.60;2.47;;;;;;;26.86;42.09;100701.92;1735426;82;21530;-39
2021/06/20 07:12:53;;;;;;;18.05;2.08;;;;;;;27.00;40.89;100696.77;1735364;82;21015;-38
2021/06/20 07:15:21;;;;;;;20.05;2.10;;;;;;;27.05;40.59;100707.84;1735421;82;20995;-39
2021/06/20 07:17:48;;;;;;;10.03;1.72;;;;;;;27.10;40.51;100700.32;1735208;82;20968;-38
2021/06/20 07:20:15;;;;;;;10.45;1.67;;;;;;;27.15;40.22;100694.63;1735223;82;21172;-37
2021/06/20 07:22:44;;;;;;;11.38;1.67;;;;;;;27.14;40.18;100692.95;1735240;81;20910;-37
2021/06/20 07:25:17;;;;;;;11.78;1.50;;;;;;;27.24;39.73;100695.16;1734721;82;21008;-38
2021/06/20 07:27:43;;;;;;;14.93;1.45;;;;;;;27.30;39.69;100685.83;1735542;82;20980;-36
2021/06/20 07:30:13;;;;;;;7.30;1.32;;;;;;;27.38;39.17;100697.48;1735265;82;21004;-36
2021/06/20 07:32:39;;;;;;;11.93;1.45;;;;;;;27.40;39.15;100681.39;1735564;82;21126;-37
2021/06/20 07:35:08;;;;;;;43.02;2.70;;;;;;;27.52;39.23;100689.67;1735207;82;20965;-39
2021/06/20 07:37:34;;;;;;;10.40;1.40;;;;;;;27.66;39.26;100694.25;1735494;82;20949;-38
2021/06/20 07:40:03;;;;;;;8.95;1.87;;;;;;;27.64;39.09;100702.85;1735241;82;20980;-38
2021/06/20 07:42:30;;;;;;;11.88;1.47;;;;;;;27.73;39.17;100698.08;1735242;82;20956;-39
2021/06/20 07:44:57;;;;;;;10.63;1.85;;;;;;;27.94;39.09;100705.14;1735451;82;21113;-39
2021/06/20 07:47:23;;;;;;;20.43;2.37;;;;;;;28.10;38.76;100701.45;1736315;81;20929;-39
2021/06/20 07:49:50;;;;;;;13.08;1.87;;;;;;;28.20;37.42;100706.82;1749414;82;20975;-41
2021/06/20 07:52:16;;;;;;;10.98;1.60;;;;;;;28.08;36.73;100706.06;1749446;82;20980;-39
2021/06/20 07:54:49;;;;;;;19.02;1.82;;;;;;;27.92;38.57;100706.59;1749216;82;21003;-39
2021/06/20 07:57:12;;;;;;;22.02;1.22;;;;;;;28.01;37.45;100708.93;1748978;82;21205;-39
2021/06/20 07:59:39;;;;;;;9.48;1.45;;;;;;;27.93;36.08;100704.79;1749198;82;20944;-39
2021/06/20 08:02:05;;;;;;;10.50;1.17;;;;;;;27.89;37.59;100707.34;1749568;82;21010;-38
2021/06/20 08:04:32;;;;;;;7.97;1.67;;;;;;;28.07;36.38;100712.36;1749618;82;20975;-38
2021/06/20 08:06:59;;;;;;;9.70;1.30;;;;;;;28.23;36.67;100699.06;1749222;82;21019;-36
2021/06/20 08:09:26;;;;;;;16.00;1.10;;;;;;;28.39;35.97;100708.66;1749301;82;21127;-38
2021/06/20 08:11:52;;;;;;;5.65;1.00;;;;;;;28.52;35.75;100704.39;1749039;82;20959;-39
2021/06/20 08:14:19;;;;;;;6.90;0.82;;;;;;;28.62;35.73;100702.23;1749302;82;21067;-38
2021/06/20 08:16:46;;;;;;;7.70;0.80;;;;;;;28.46;34.51;100702.80;1749454;82;21081;-40
2021/06/20 08:19:14;;;;;;;6.75;0.82;;;;;;;27.95;35.15;100717.46;1749182;82;20984;-38
2021/06/20 08:21:43;;;;;;;6.15;1.90;;;;;;;27.45;36.33;100728.36;1749064;82;21115;-37
2021/06/20 08:24:10;;;;;;;12.37;4.15;;;;;;;27.13;37.29;100735.09;1749451;82;20932;-38
2021/06/20 08:26:37;;;;;;;4.70;1.45;;;;;;;27.01;38.14;100731.66;1749108;82;20956;-38
2021/06/20 08:29:04;;;;;;;8.05;1.35;;;;;;;27.13;38.15;100731.93;1749045;82;21466;-38
2021/06/20 08:31:32;;;;;;;4.78;1.80;;;;;;;27.45;38.82;100733.67;1749350;82;21551;-38
2021/06/20 08:33:58;;;;;;;14.15;1.30;;;;;;;27.86;37.21;100730.22;1749378;82;21079;-38
2021/06/20 08:36:25;;;;;;;7.90;1.50;;;;;;;28.22;36.03;100733.30;1749174;82;20987;-40
2021/06/20 08:38:52;;;;;;;7.60;1.40;;;;;;;28.40;36.53;100732.95;1749167;82;20983;-39
2021/06/20 08:41:18;;;;;;;10.03;0.98;;;;;;;28.76;37.11;100729.75;1749100;82;20948;-38
2021/06/20 08:43:46;;;;;;;9.18;1.02;;;;;;;29.05;34.70;100710.28;1749302;82;21502;-39
2021/06/20 08:46:12;;;;;;;7.92;1.17;;;;;;;28.92;35.37;100717.72;1749427;82;21763;-40
2021/06/20 08:48:39;;;;;;;4.12;0.90;;;;;;;28.59;35.88;100713.99;1749108;81;20917;-39
2021/06/20 08:51:06;;;;;;;5.40;1.45;;;;;;;28.46;35.35;100716.11;1749229;82;21605;-38
2021/06/20 08:53:34;;;;;;;9.10;1.02;;;;;;;28.43;37.28;100696.43;1749082;82;21501;-40
2021/06/20 08:56:00;;;;;;;3.17;1.20;;;;;;;28.66;35.27;100688.48;1713940;82;20973;-39
2021/06/20 08:58:34;;;;;;;8.90;1.40;;;;;;;28.71;35.76;100704.55;1749292;82;21825;-37
2021/06/20 09:01:03;;;;;;;6.85;1.15;;;;;;;28.86;35.87;100692.48;1749055;82;20932;-37
2021/06/20 09:03:41;;;;;;;28.00;1.35;;;;;;;28.99;34.63;100698.02;1749134;82;21475;-38
2021/06/20 09:06:20;;;;;;;4.05;0.80;;;;;;;28.93;34.57;100692.29;1749338;82;20975;-37
2021/06/20 09:08:56;;;;;;;8.38;1.20;;;;;;;28.95;34.94;100695.65;1749080;82;20960;-38
2021/06/20 09:11:38;;;;;;;2.30;0.90;;;;;;;29.00;34.40;100703.19;1749432;82;21127;-38
2021/06/20 09:14:10;;;;;;;7.33;0.80;;;;;;;28.95;36.30;100704.97;1749167;81;21509;-39
2021/06/20 09:16:51;;;;;;;4.80;1.05;;;;;;;28.98;35.17;100714.48;1749414;82;21018;-37
2021/06/20 09:19:17;;;;;;;5.25;0.90;;;;;;;28.98;35.40;100714.98;1749065;82;21035;-38
2021/06/20 09:21:52;;;;;;;5.08;2.15;;;;;;;29.09;35.64;100729.47;1749226;82;22152;-38
2021/06/20 09:24:19;;;;;;;4.28;0.75;;;;;;;29.28;35.18;100727.75;1749136;82;21147;-38
2021/06/20 09:26:54;;;;;;;6.78;1.72;;;;;;;29.43;35.21;100741.00;1749328;82;20924;-39
2021/06/20 09:29:37;;;;;;;5.87;0.80;;;;;;;29.49;36.17;100744.41;1739169;82;20969;-38
2021/06/20 09:32:08;;;;;;;4.67;0.95;;;;;;;29.47;33.93;100739.72;1749161;82;20991;-38
2021/06/20 09:34:49;;;;;;;4.05;0.80;;;;;;;29.01;34.03;100740.83;1749222;82;20940;-38
2021/06/20 09:37:20;;;;;;;2.17;0.85;;;;;;;28.39;35.16;100740.59;1749460;82;21809;-38
2021/06/20 09:39:47;;;;;;;5.33;1.50;;;;;;;27.86;37.12;100748.83;1749224;82;20951;-37
2021/06/20 09:42:15;;;;;;;7.53;0.68;;;;;;;27.59;37.53;100750.27;1749579;82;21072;-37
2021/06/20 09:44:48;;;;;;;5.42;0.95;;;;;;;27.33;37.66;100753.31;1749227;82;20945;-37
2021/06/20 09:47:17;;;;;;;14.13;0.95;;;;;;;27.04;38.03;100751.31;1748741;82;20932;-38
2021/06/20 09:49:45;;;;;;;7.50;0.90;;;;;;;26.73;38.75;100745.87;1749271;81;21796;-39
2021/06/20 09:52:12;;;;;;;7.70;0.90;;;;;;;26.53;40.08;100741.72;1749140;82;20980;-38
2021/06/20 09:54:44;;;;;;;7.78;1.00;;;;;;;26.45;40.62;100737.53;1749611;82;21011;-38
2021/06/20 09:57:15;;;;;;;6.40;1.17;;;;;;;26.50;41.68;100735.34;1749250;81;21079;-38
2021/06/20 09:59:44;;;;;;;12.28;1.17;;;;;;;26.64;40.61;100732.37;1749457;82;20968;-37
2021/06/20 10:02:12;;;;;;;5.37;1.02;;;;;;;26.68;40.73;100733.83;1747626;82;21140;-37
2021/06/20 10:04:40;;;;;;;5.28;1.10;;;;;;;26.68;40.80;100731.17;1749499;82;20952;-40
2021/06/20 10:07:09;;;;;;;9.68;1.05;;;;;;;26.69;40.59;100732.00;1749242;82;20932;-38
2021/06/20 10:09:37;;;;;;;17.50;1.42;;;;;;;26.75;40.28;100734.64;1749161;82;21015;-39
2021/06/20 10:12:05;;;;;;;13.28;1.50;;;;;;;26.89;41.18;100726.38;1749276;82;20968;-39
2021/06/20 10:14:33;;;;;;;6.33;1.55;;;;;;;27.14;41.33;100716.84;1749251;82;20975;-37
2021/06/20 10:17:06;;;;;;;13.43;1.55;;;;;;;27.46;42.08;100723.40;1697887;82;21015;-38
2021/06/20 10:19:33;;;;;;;5.22;1.50;;;;;;;27.78;41.30;100718.45;1747569;82;20983;-36
2021/06/20 10:22:06;;;;;;;3.50;1.37;;;;;;;28.02;40.30;100707.95;1749162;82;21095;-37
2021/06/20 10:24:51;;;;;;;11.95;1.75;;;;;;;28.34;40.16;100710.90;1749362;82;20959;-39
2021/06/20 10:27:35;;;;;;;11.85;1.67;;;;;;;28.85;39.49;100700.64;1749126;82;21147;-38
2021/06/20 10:30:06;;;;;;;13.33;1.33;;;;;;;29.39;39.63;100692.44;1749445;82;20940;-38
2021/06/20 10:32:43;;;;;;;10.03;1.70;;;;;;;29.83;37.66;100694.50;1749227;82;20971;-37
2021/06/20 10:35:20;;;;;;;11.40;1.75;;;;;;;30.02;36.49;100684.73;1748941;82;21521;-37
2021/06/20 10:37:47;;;;;;;6.55;1.55;;;;;;;30.20;36.95;100678.59;1749295;82;20975;-39
2021/06/20 10:40:26;;;;;;;9.63;1.67;;;;;;;30.56;35.58;100675.89;1749351;82;21126;-37
2021/06/20 10:42:55;;;;;;;10.53;1.27;;;;;;;30.62;36.26;100683.82;1749265;82;20968;-38
2021/06/20 10:45:32;;;;;;;9.95;1.00;;;;;;;30.79;35.99;100680.77;1749233;82;21036;-38
2021/06/20 10:47:59;;;;;;;11.03;1.10;;;;;;;31.00;35.73;100676.91;1748326;82;20940;-38
2021/06/20 10:50:38;;;;;;;7.28;1.60;;;;;;;31.11;35.12;100668.13;1749259;82;20975;-37
2021/06/20 10:53:04;;;;;;;15.65;1.85;;;;;;;31.28;33.76;100662.88;1749177;81;21948;-37
2021/06/20 10:55:41;;;;;;;11.15;2.30;;;;;;;31.17;34.15;100651.11;1749126;82;21533;-38
2021/06/20 10:58:26;;;;;;;13.20;1.57;;;;;;;31.03;34.55;100656.55;1749229;82;20924;-40
2021/06/20 11:01:08;;;;;;;13.10;2.30;;;;;;;30.95;33.18;100655.52;1749264;82;20948;-39
2021/06/20 11:03:35;;;;;;;6.55;1.15;;;;;;;31.15;33.36;100646.43;1749397;82;21031;-37
2021/06/20 11:06:11;;;;;;;2.62;1.62;;;;;;;31.25;32.01;100652.03;1749185;82;21309;-39
2021/06/20 11:08:43;;;;;;;15.50;1.00;;;;;;;31.06;31.81;100646.36;1749253;82;20975;-38
2021/06/20 11:11:31;;;;;;;27.35;1.95;;;;;;;30.41;32.42;100650.24;1749279;80;20988;-37
2021/06/20 11:14:03;;;;;;;8.88;1.30;;;;;;;29.84;32.73;100652.67;1749203;82;20936;-38
2021/06/20 11:16:36;;;;;;;11.05;0.90;;;;;;;29.16;34.10;100653.30;1749224;82;21667;-36
2021/06/20 11:19:27;;;;;;;7.30;3.25;;;;;;;28.61;36.01;100650.80;1749464;82;21073;-38
2021/06/20 11:21:59;;;;;;;8.73;1.37;;;;;;;28.24;37.73;100643.03;1748160;82;20953;-38
2021/06/20 11:24:36;;;;;;;2.52;1.10;;;;;;;27.90;38.72;100645.20;1749514;82;20980;-39
2021/06/20 11:27:12;;;;;;;5.33;0.93;;;;;;;27.66;39.49;100643.74;1749245;82;21898;-38
2021/06/20 11:29:50;;;;;;;11.70;1.10;;;;;;;27.38;38.60;100653.64;1749637;82;21533;-38